sensor_id;sensor_type;location;lat;lon;timestamp;P1;durP1;ratioP1;P2;durP2;ratioP2
47009;SDS011;59230;54.164;-3.124;2023-08-20T00:00:12;35.53;;;5.60;;
47009;SDS011;59230;54.164;-3.124;2023-08-20T00:02:39;31.35;;;5.22;;
47009;SDS011;59230;54.164;-3.124;2023-08-20T00:05:07;35.60;;;4.43;;
47009;SDS011;59230;54.164;-3.124;2023-08-20T00:07:33;43.25;;;6.47;;
47009;SDS011;59230;54.164;-3.124;2023-08-20T00:09:59;32.13;;;5.35;;
47009;SDS011;59230;54.164;-3.124;2023-08-20T00:12:24;43.92;;;5.97;;
47009;SDS011;59230;54.164;-3.124;2023-08-20T00:15:01;36.65;;;5.43;;
47009;SDS011;59230;54.164;-3.124;2023-08-20T00:17:31;34.72;;;5.65;;
47009;SDS011;59230;54.164;-3.124;2023-08-20T00:19:58;41.05;;;6.10;;
47009;SDS011;59230;54.164;-3.124;2023-08-20T00:22:24;36.17;;;5.38;;
47009;SDS011;59230;54.164;-3.124;2023-08-20T00:24:50;42.25;;;6.72;;
47009;SDS011;59230;54.164;-3.124;2023-08-20T00:27:17;30.92;;;5.20;;
47009;SDS011;59230;54.164;-3.124;2023-08-20T00:29:42;41.85;;;5.35;;
47009;SDS011;59230;54.164;-3.124;2023-08-20T00:32:08;39.92;;;5.35;;
47009;SDS011;59230;54.164;-3.124;2023-08-20T00:34:34;40.65;;;4.72;;
47009;SDS011;59230;54.164;-3.124;2023-08-20T00:37:00;31.55;;;5.13;;
47009;SDS011;59230;54.164;-3.124;2023-08-20T00:39:26;38.95;;;5.25;;
47009;SDS011;59230;54.164;-3.124;2023-08-20T00:41:51;34.90;;;4.57;;
47009;SDS011;59230;54.164;-3.124;2023-08-20T00:44:18;30.85;;;5.10;;
47009;SDS011;59230;54.164;-3.124;2023-08-20T00:46:43;32.28;;;5.22;;
47009;SDS011;59230;54.164;-3.124;2023-08-20T00:49:09;40.22;;;5.30;;
47009;SDS011;59230;54.164;-3.124;2023-08-20T00:51:34;41.47;;;5.15;;
47009;SDS011;59230;54.164;-3.124;2023-08-20T00:54:00;36.92;;;4.97;;
47009;SDS011;59230;54.164;-3.124;2023-08-20T00:56:27;42.90;;;5.10;;
47009;SDS011;59230;54.164;-3.124;2023-08-20T00:58:53;33.60;;;5.10;;
47009;SDS011;59230;54.164;-3.124;2023-08-20T01:01:20;40.55;;;5.25;;
47009;SDS011;59230;54.164;-3.124;2023-08-20T01:03:46;43.22;;;5.85;;
47009;SDS011;59230;54.164;-3.124;2023-08-20T01:09:03;43.60;;;5.40;;
47009;SDS011;59230;54.164;-3.124;2023-08-20T01:11:33;39.92;;;5.13;;
47009;SDS011;59230;54.164;-3.124;2023-08-20T01:14:02;25.70;;;5.03;;
47009;SDS011;59230;54.164;-3.124;2023-08-20T01:16:28;39.13;;;5.80;;
47009;SDS011;59230;54.164;-3.124;2023-08-20T01:18:53;37.42;;;5.03;;
47009;SDS011;59230;54.164;-3.124;2023-08-20T01:24:54;44.60;;;5.53;;
47009;SDS011;59230;54.164;-3.124;2023-08-20T01:29:34;37.95;;;4.90;;
47009;SDS011;59230;54.164;-3.124;2023-08-20T01:32:00;36.65;;;5.75;;
47009;SDS011;59230;54.164;-3.124;2023-08-20T01:34:26;33.08;;;4.82;;
47009;SDS011;59230;54.164;-3.124;2023-08-20T01:36:51;37.53;;;5.50;;
47009;SDS011;59230;54.164;-3.124;2023-08-20T01:39:17;35.50;;;5.32;;
47009;SDS011;59230;54.164;-3.124;2023-08-20T01:41:43;33.17;;;4.57;;
47009;SDS011;59230;54.164;-3.124;2023-08-20T01:44:09;29.10;;;4.13;;
47009;SDS011;59230;54.164;-3.124;2023-08-20T01:46:34;44.17;;;5.03;;
47009;SDS011;59230;54.164;-3.124;2023-08-20T01:49:00;31.00;;;4.05;;
47009;SDS011;59230;54.164;-3.124;2023-08-20T01:51:25;32.67;;;5.30;;
47009;SDS011;59230;54.164;-3.124;2023-08-20T01:53:51;28.60;;;4.28;;
47009;SDS011;59230;54.164;-3.124;2023-08-20T01:56:16;28.85;;;4.57;;
47009;SDS011;59230;54.164;-3.124;2023-08-20T01:58:41;28.77;;;3.92;;
47009;SDS011;59230;54.164;-3.124;2023-08-20T02:01:07;29.30;;;4.25;;
47009;SDS011;59230;54.164;-3.124;2023-08-20T02:03:32;32.08;;;4.18;;
47009;SDS011;59230;54.164;-3.124;2023-08-20T02:05:59;28.45;;;4.45;;
47009;SDS011;59230;54.164;-3.124;2023-08-20T02:08:24;29.60;;;4.00;;
47009;SDS011;59230;54.164;-3.124;2023-08-20T02:10:58;29.52;;;4.80;;
47009;SDS011;59230;54.164;-3.124;2023-08-20T02:13:25;38.75;;;5.40;;
47009;SDS011;59230;54.164;-3.124;2023-08-20T02:15:57;27.95;;;4.53;;
47009;SDS011;59230;54.164;-3.124;2023-08-20T02:18:23;35.08;;;4.60;;
47009;SDS011;59230;54.164;-3.124;2023-08-20T02:20:48;34.65;;;4.28;;
47009;SDS011;59230;54.164;-3.124;2023-08-20T02:23:14;29.25;;;3.55;;
47009;SDS011;59230;54.164;-3.124;2023-08-20T02:25:39;25.63;;;4.43;;
47009;SDS011;59230;54.164;-3.124;2023-08-20T02:28:04;26.00;;;4.43;;
47009;SDS011;59230;54.164;-3.124;2023-08-20T02:30:30;25.65;;;4.80;;
47009;SDS011;59230;54.164;-3.124;2023-08-20T02:32:55;29.55;;;4.57;;
47009;SDS011;59230;54.164;-3.124;2023-08-20T02:35:21;29.48;;;4.40;;
47009;SDS011;59230;54.164;-3.124;2023-08-20T02:37:46;36.53;;;4.90;;
47009;SDS011;59230;54.164;-3.124;2023-08-20T02:40:11;36.00;;;5.68;;
47009;SDS011;59230;54.164;-3.124;2023-08-20T02:42:39;35.80;;;5.20;;
47009;SDS011;59230;54.164;-3.124;2023-08-20T02:45:05;27.80;;;4.22;;
47009;SDS011;59230;54.164;-3.124;2023-08-20T02:47:30;33.30;;;4.93;;
47009;SDS011;59230;54.164;-3.124;2023-08-20T02:49:56;26.58;;;3.95;;
47009;SDS011;59230;54.164;-3.124;2023-08-20T02:52:21;33.65;;;5.22;;
47009;SDS011;59230;54.164;-3.124;2023-08-20T02:54:47;31.42;;;4.97;;
47009;SDS011;59230;54.164;-3.124;2023-08-20T02:57:12;31.83;;;4.88;;
47009;SDS011;59230;54.164;-3.124;2023-08-20T02:59:38;37.15;;;4.47;;
47009;SDS011;59230;54.164;-3.124;2023-08-20T03:02:03;35.72;;;4.72;;
47009;SDS011;59230;54.164;-3.124;2023-08-20T03:04:28;29.25;;;5.00;;
47009;SDS011;59230;54.164;-3.124;2023-08-20T03:06:54;36.38;;;4.75;;
47009;SDS011;59230;54.164;-3.124;2023-08-20T03:09:19;34.97;;;4.75;;
47009;SDS011;59230;54.164;-3.124;2023-08-20T03:11:44;30.30;;;4.55;;
47009;SDS011;59230;54.164;-3.124;2023-08-20T03:14:10;32.33;;;4.40;;
47009;SDS011;59230;54.164;-3.124;2023-08-20T03:16:35;40.83;;;5.18;;
47009;SDS011;59230;54.164;-3.124;2023-08-20T03:19:01;32.00;;;4.93;;
47009;SDS011;59230;54.164;-3.124;2023-08-20T03:21:27;33.47;;;4.97;;
47009;SDS011;59230;54.164;-3.124;2023-08-20T03:23:53;26.85;;;4.30;;
47009;SDS011;59230;54.164;-3.124;2023-08-20T03:26:18;30.27;;;4.00;;
47009;SDS011;59230;54.164;-3.124;2023-08-20T03:28:43;28.08;;;5.18;;
47009;SDS011;59230;54.164;-3.124;2023-08-20T03:31:09;31.92;;;4.43;;
47009;SDS011;59230;54.164;-3.124;2023-08-20T03:33:34;27.10;;;4.40;;
47009;SDS011;59230;54.164;-3.124;2023-08-20T03:36:00;30.05;;;4.28;;
47009;SDS011;59230;54.164;-3.124;2023-08-20T03:38:25;26.42;;;3.78;;
47009;SDS011;59230;54.164;-3.124;2023-08-20T03:40:51;28.88;;;4.40;;
47009;SDS011;59230;54.164;-3.124;2023-08-20T03:43:16;24.02;;;3.60;;
47009;SDS011;59230;54.164;-3.124;2023-08-20T03:45:42;22.95;;;4.32;;
47009;SDS011;59230;54.164;-3.124;2023-08-20T03:48:07;30.38;;;4.38;;
47009;SDS011;59230;54.164;-3.124;2023-08-20T03:50:32;31.95;;;4.00;;
47009;SDS011;59230;54.164;-3.124;2023-08-20T03:52:58;24.17;;;4.03;;
47009;SDS011;59230;54.164;-3.124;2023-08-20T03:55:23;22.42;;;3.47;;
47009;SDS011;59230;54.164;-3.124;2023-08-20T03:57:49;29.70;;;3.88;;
47009;SDS011;59230;54.164;-3.124;2023-08-20T04:00:14;24.75;;;3.45;;
47009;SDS011;59230;54.164;-3.124;2023-08-20T04:02:40;22.02;;;3.88;;
47009;SDS011;59230;54.164;-3.124;2023-08-20T04:05:05;22.75;;;3.63;;
47009;SDS011;59230;54.164;-3.124;2023-08-20T04:07:31;27.05;;;4.93;;
47009;SDS011;59230;54.164;-3.124;2023-08-20T04:09:56;22.48;;;4.03;;
47009;SDS011;59230;54.164;-3.124;2023-08-20T04:12:22;27.63;;;4.53;;
47009;SDS011;59230;54.164;-3.124;2023-08-20T04:14:47;23.30;;;3.47;;
47009;SDS011;59230;54.164;-3.124;2023-08-20T04:17:12;23.50;;;3.58;;
47009;SDS011;59230;54.164;-3.124;2023-08-20T04:19:38;28.63;;;3.72;;
47009;SDS011;59230;54.164;-3.124;2023-08-20T04:22:03;31.15;;;3.58;;
47009;SDS011;59230;54.164;-3.124;2023-08-20T04:24:29;22.15;;;3.67;;
47009;SDS011;59230;54.164;-3.124;2023-08-20T04:26:54;26.60;;;4.03;;
47009;SDS011;59230;54.164;-3.124;2023-08-20T04:29:19;28.83;;;3.53;;
47009;SDS011;59230;54.164;-3.124;2023-08-20T04:31:45;24.80;;;4.07;;
47009;SDS011;59230;54.164;-3.124;2023-08-20T04:34:10;22.13;;;4.15;;
47009;SDS011;59230;54.164;-3.124;2023-08-20T04:36:36;29.88;;;3.92;;
47009;SDS011;59230;54.164;-3.124;2023-08-20T04:39:01;30.70;;;4.20;;
47009;SDS011;59230;54.164;-3.124;2023-08-20T04:41:27;26.25;;;3.95;;
47009;SDS011;59230;54.164;-3.124;2023-08-20T04:43:53;20.23;;;3.75;;
47009;SDS011;59230;54.164;-3.124;2023-08-20T04:46:18;27.95;;;4.53;;
47009;SDS011;59230;54.164;-3.124;2023-08-20T04:48:43;37.30;;;4.72;;
47009;SDS011;59230;54.164;-3.124;2023-08-20T04:51:09;34.67;;;5.75;;
47009;SDS011;59230;54.164;-3.124;2023-08-20T04:53:34;31.60;;;4.00;;
47009;SDS011;59230;54.164;-3.124;2023-08-20T04:56:00;28.35;;;3.45;;
47009;SDS011;59230;54.164;-3.124;2023-08-20T04:58:25;25.77;;;4.95;;
47009;SDS011;59230;54.164;-3.124;2023-08-20T05:00:51;22.75;;;3.53;;
47009;SDS011;59230;54.164;-3.124;2023-08-20T05:03:16;28.40;;;4.38;;
47009;SDS011;59230;54.164;-3.124;2023-08-20T05:05:41;30.13;;;4.22;;
47009;SDS011;59230;54.164;-3.124;2023-08-20T05:08:07;23.40;;;4.47;;
47009;SDS011;59230;54.164;-3.124;2023-08-20T05:10:35;27.30;;;4.90;;
47009;SDS011;59230;54.164;-3.124;2023-08-20T05:13:01;27.02;;;4.55;;
47009;SDS011;59230;54.164;-3.124;2023-08-20T05:15:26;26.13;;;3.85;;
47009;SDS011;59230;54.164;-3.124;2023-08-20T05:17:52;24.77;;;3.85;;
47009;SDS011;59230;54.164;-3.124;2023-08-20T05:20:17;27.65;;;3.90;;
47009;SDS011;59230;54.164;-3.124;2023-08-20T05:22:42;26.95;;;4.72;;
47009;SDS011;59230;54.164;-3.124;2023-08-20T05:25:08;34.78;;;5.45;;
47009;SDS011;59230;54.164;-3.124;2023-08-20T05:27:34;25.73;;;3.35;;
47009;SDS011;59230;54.164;-3.124;2023-08-20T05:29:59;28.48;;;4.65;;
47009;SDS011;59230;54.164;-3.124;2023-08-20T05:32:25;25.67;;;3.88;;
47009;SDS011;59230;54.164;-3.124;2023-08-20T05:34:50;30.75;;;4.07;;
47009;SDS011;59230;54.164;-3.124;2023-08-20T05:37:15;29.48;;;4.50;;
47009;SDS011;59230;54.164;-3.124;2023-08-20T05:39:41;40.00;;;4.53;;
47009;SDS011;59230;54.164;-3.124;2023-08-20T05:42:07;26.42;;;4.80;;
47009;SDS011;59230;54.164;-3.124;2023-08-20T05:44:33;31.83;;;4.45;;
47009;SDS011;59230;54.164;-3.124;2023-08-20T05:46:58;31.02;;;4.47;;
47009;SDS011;59230;54.164;-3.124;2023-08-20T05:49:24;31.45;;;4.20;;
47009;SDS011;59230;54.164;-3.124;2023-08-20T05:51:49;23.63;;;3.22;;
47009;SDS011;59230;54.164;-3.124;2023-08-20T05:54:15;25.30;;;3.40;;
47009;SDS011;59230;54.164;-3.124;2023-08-20T05:56:40;22.90;;;3.67;;
47009;SDS011;59230;54.164;-3.124;2023-08-20T05:59:05;27.50;;;4.28;;
47009;SDS011;59230;54.164;-3.124;2023-08-20T06:01:31;28.92;;;4.65;;
47009;SDS011;59230;54.164;-3.124;2023-08-20T06:03:56;32.30;;;4.60;;
47009;SDS011;59230;54.164;-3.124;2023-08-20T06:06:22;28.65;;;3.45;;
47009;SDS011;59230;54.164;-3.124;2023-08-20T06:08:47;31.08;;;4.90;;
47009;SDS011;59230;54.164;-3.124;2023-08-20T06:11:13;20.08;;;3.58;;
47009;SDS011;59230;54.164;-3.124;2023-08-20T06:13:38;23.63;;;3.85;;
47009;SDS011;59230;54.164;-3.124;2023-08-20T06:16:04;27.65;;;3.20;;
47009;SDS011;59230;54.164;-3.124;2023-08-20T06:18:30;23.17;;;3.40;;
47009;SDS011;59230;54.164;-3.124;2023-08-20T06:20:55;21.77;;;3.22;;
47009;SDS011;59230;54.164;-3.124;2023-08-20T06:23:20;25.88;;;3.40;;
47009;SDS011;59230;54.164;-3.124;2023-08-20T06:25:46;23.23;;;3.30;;
47009;SDS011;59230;54.164;-3.124;2023-08-20T06:28:11;28.70;;;3.70;;
47009;SDS011;59230;54.164;-3.124;2023-08-20T06:30:37;23.65;;;3.33;;
47009;SDS011;59230;54.164;-3.124;2023-08-20T06:33:02;26.40;;;4.43;;
47009;SDS011;59230;54.164;-3.124;2023-08-20T06:35:28;26.50;;;3.53;;
47009;SDS011;59230;54.164;-3.124;2023-08-20T06:37:53;23.48;;;3.17;;
47009;SDS011;59230;54.164;-3.124;2023-08-20T06:40:19;37.67;;;4.10;;
47009;SDS011;59230;54.164;-3.124;2023-08-20T06:42:44;20.17;;;3.38;;
47009;SDS011;59230;54.164;-3.124;2023-08-20T06:45:09;23.80;;;3.75;;
47009;SDS011;59230;54.164;-3.124;2023-08-20T06:47:35;32.45;;;3.92;;
47009;SDS011;59230;54.164;-3.124;2023-08-20T06:50:00;24.52;;;3.33;;
47009;SDS011;59230;54.164;-3.124;2023-08-20T06:52:26;19.00;;;3.95;;
47009;SDS011;59230;54.164;-3.124;2023-08-20T06:54:51;25.25;;;3.60;;
47009;SDS011;59230;54.164;-3.124;2023-08-20T06:57:17;26.50;;;3.42;;
47009;SDS011;59230;54.164;-3.124;2023-08-20T06:59:42;17.23;;;3.22;;
47009;SDS011;59230;54.164;-3.124;2023-08-20T07:02:08;20.13;;;3.63;;
47009;SDS011;59230;54.164;-3.124;2023-08-20T07:04:35;24.75;;;3.22;;
47009;SDS011;59230;54.164;-3.124;2023-08-20T07:07:00;31.55;;;4.10;;
47009;SDS011;59230;54.164;-3.124;2023-08-20T07:09:25;20.13;;;3.58;;
47009;SDS011;59230;54.164;-3.124;2023-08-20T07:11:51;19.95;;;3.05;;
47009;SDS011;59230;54.164;-3.124;2023-08-20T07:14:16;26.48;;;3.42;;
47009;SDS011;59230;54.164;-3.124;2023-08-20T07:16:42;20.02;;;3.35;;
47009;SDS011;59230;54.164;-3.124;2023-08-20T07:19:07;19.55;;;3.47;;
47009;SDS011;59230;54.164;-3.124;2023-08-20T07:21:33;20.20;;;3.47;;
47009;SDS011;59230;54.164;-3.124;2023-08-20T07:23:58;23.65;;;3.80;;
47009;SDS011;59230;54.164;-3.124;2023-08-20T07:26:23;18.00;;;2.92;;
47009;SDS011;59230;54.164;-3.124;2023-08-20T07:28:49;23.90;;;3.38;;
47009;SDS011;59230;54.164;-3.124;2023-08-20T07:31:25;25.48;;;3.67;;
47009;SDS011;59230;54.164;-3.124;2023-08-20T07:33:55;21.65;;;3.67;;
47009;SDS011;59230;54.164;-3.124;2023-08-20T07:36:21;15.82;;;2.95;;
47009;SDS011;59230;54.164;-3.124;2023-08-20T07:38:47;24.23;;;3.25;;
47009;SDS011;59230;54.164;-3.124;2023-08-20T07:41:13;21.13;;;2.60;;
47009;SDS011;59230;54.164;-3.124;2023-08-20T07:43:39;18.00;;;2.60;;
47009;SDS011;59230;54.164;-3.124;2023-08-20T07:46:05;22.65;;;2.30;;
47009;SDS011;59230;54.164;-3.124;2023-08-20T07:48:31;23.40;;;3.30;;
47009;SDS011;59230;54.164;-3.124;2023-08-20T07:50:56;20.02;;;2.60;;
47009;SDS011;59230;54.164;-3.124;2023-08-20T07:53:22;15.55;;;3.10;;
47009;SDS011;59230;54.164;-3.124;2023-08-20T07:55:47;17.75;;;2.97;;
47009;SDS011;59230;54.164;-3.124;2023-08-20T07:58:12;18.65;;;2.90;;
47009;SDS011;59230;54.164;-3.124;2023-08-20T08:00:38;23.42;;;3.40;;
47009;SDS011;59230;54.164;-3.124;2023-08-20T08:03:03;24.85;;;3.67;;
47009;SDS011;59230;54.164;-3.124;2023-08-20T08:05:29;14.32;;;2.65;;
47009;SDS011;59230;54.164;-3.124;2023-08-20T08:07:54;17.23;;;3.15;;
47009;SDS011;59230;54.164;-3.124;2023-08-20T08:10:20;17.98;;;3.33;;
47009;SDS011;59230;54.164;-3.124;2023-08-20T08:12:45;19.27;;;3.42;;
47009;SDS011;59230;54.164;-3.124;2023-08-20T08:15:11;22.88;;;3.13;;
47009;SDS011;59230;54.164;-3.124;2023-08-20T08:17:37;21.50;;;3.53;;
47009;SDS011;59230;54.164;-3.124;2023-08-20T08:20:02;20.13;;;2.60;;
47009;SDS011;59230;54.164;-3.124;2023-08-20T08:22:28;19.83;;;3.28;;
47009;SDS011;59230;54.164;-3.124;2023-08-20T08:24:53;24.02;;;3.58;;
47009;SDS011;59230;54.164;-3.124;2023-08-20T08:27:19;17.15;;;2.40;;
47009;SDS011;59230;54.164;-3.124;2023-08-20T08:29:44;15.07;;;2.67;;
47009;SDS011;59230;54.164;-3.124;2023-08-20T08:32:10;19.75;;;2.67;;
47009;SDS011;59230;54.164;-3.124;2023-08-20T08:34:35;25.15;;;3.08;;
47009;SDS011;59230;54.164;-3.124;2023-08-20T08:37:01;19.08;;;2.58;;
47009;SDS011;59230;54.164;-3.124;2023-08-20T08:39:26;17.42;;;3.20;;
47009;SDS011;59230;54.164;-3.124;2023-08-20T08:41:52;16.75;;;2.58;;
47009;SDS011;59230;54.164;-3.124;2023-08-20T08:44:21;14.18;;;2.45;;
47009;SDS011;59230;54.164;-3.124;2023-08-20T08:46:46;15.27;;;2.50;;
47009;SDS011;59230;54.164;-3.124;2023-08-20T08:49:14;15.68;;;2.60;;
47009;SDS011;59230;54.164;-3.124;2023-08-20T08:51:40;17.58;;;2.70;;
47009;SDS011;59230;54.164;-3.124;2023-08-20T08:54:07;19.65;;;3.10;;
47009;SDS011;59230;54.164;-3.124;2023-08-20T08:56:33;24.35;;;2.97;;
47009;SDS011;59230;54.164;-3.124;2023-08-20T08:58:59;19.13;;;2.75;;
47009;SDS011;59230;54.164;-3.124;2023-08-20T09:01:24;18.08;;;2.90;;
47009;SDS011;59230;54.164;-3.124;2023-08-20T09:03:50;20.83;;;3.53;;
47009;SDS011;59230;54.164;-3.124;2023-08-20T09:06:15;22.67;;;3.13;;
47009;SDS011;59230;54.164;-3.124;2023-08-20T09:08:41;20.63;;;3.22;;
47009;SDS011;59230;54.164;-3.124;2023-08-20T09:11:06;15.93;;;2.83;;
47009;SDS011;59230;54.164;-3.124;2023-08-20T09:13:38;19.17;;;3.28;;
47009;SDS011;59230;54.164;-3.124;2023-08-20T09:16:09;15.68;;;2.70;;
47009;SDS011;59230;54.164;-3.124;2023-08-20T09:18:43;20.80;;;2.80;;
47009;SDS011;59230;54.164;-3.124;2023-08-20T09:21:10;24.10;;;3.53;;
47009;SDS011;59230;54.164;-3.124;2023-08-20T09:23:37;25.98;;;3.75;;
47009;SDS011;59230;54.164;-3.124;2023-08-20T09:26:03;20.42;;;3.22;;
47009;SDS011;59230;54.164;-3.124;2023-08-20T09:28:30;23.95;;;3.40;;
47009;SDS011;59230;54.164;-3.124;2023-08-20T09:31:05;25.63;;;3.75;;
47009;SDS011;59230;54.164;-3.124;2023-08-20T09:33:31;15.35;;;2.42;;
47009;SDS011;59230;54.164;-3.124;2023-08-20T09:35:56;13.95;;;3.15;;
47009;SDS011;59230;54.164;-3.124;2023-08-20T09:38:22;20.17;;;2.80;;
47009;SDS011;59230;54.164;-3.124;2023-08-20T09:40:49;22.13;;;3.40;;
47009;SDS011;59230;54.164;-3.124;2023-08-20T09:43:21;20.13;;;3.45;;
47009;SDS011;59230;54.164;-3.124;2023-08-20T09:45:51;22.65;;;3.10;;
47009;SDS011;59230;54.164;-3.124;2023-08-20T09:48:18;20.45;;;4.35;;
47009;SDS011;59230;54.164;-3.124;2023-08-20T09:50:46;19.63;;;3.67;;
47009;SDS011;59230;54.164;-3.124;2023-08-20T09:53:25;19.05;;;3.30;;
47009;SDS011;59230;54.164;-3.124;2023-08-20T09:55:52;19.70;;;3.22;;
47009;SDS011;59230;54.164;-3.124;2023-08-20T09:58:21;19.25;;;3.17;;
47009;SDS011;59230;54.164;-3.124;2023-08-20T10:00:50;22.15;;;3.65;;
47009;SDS011;59230;54.164;-3.124;2023-08-20T10:03:19;21.15;;;2.97;;
47009;SDS011;59230;54.164;-3.124;2023-08-20T10:05:49;21.85;;;3.80;;
47009;SDS011;59230;54.164;-3.124;2023-08-20T10:08:15;22.05;;;2.95;;
47009;SDS011;59230;54.164;-3.124;2023-08-20T10:10:41;18.50;;;2.50;;
47009;SDS011;59230;54.164;-3.124;2023-08-20T10:13:06;22.55;;;3.50;;
47009;SDS011;59230;54.164;-3.124;2023-08-20T10:15:32;17.88;;;3.00;;
47009;SDS011;59230;54.164;-3.124;2023-08-20T10:18:01;22.55;;;3.67;;
47009;SDS011;59230;54.164;-3.124;2023-08-20T10:20:28;18.40;;;3.17;;
47009;SDS011;59230;54.164;-3.124;2023-08-20T10:22:57;15.35;;;2.80;;
47009;SDS011;59230;54.164;-3.124;2023-08-20T10:25:26;17.90;;;3.20;;
47009;SDS011;59230;54.164;-3.124;2023-08-20T10:27:52;20.40;;;2.72;;
47009;SDS011;59230;54.164;-3.124;2023-08-20T10:30:19;18.77;;;2.95;;
47009;SDS011;59230;54.164;-3.124;2023-08-20T10:32:50;24.17;;;3.25;;
47009;SDS011;59230;54.164;-3.124;2023-08-20T10:38:05;14.13;;;2.50;;
47009;SDS011;59230;54.164;-3.124;2023-08-20T10:43:23;11.93;;;2.80;;
47009;SDS011;59230;54.164;-3.124;2023-08-20T10:46:07;13.90;;;2.55;;
47009;SDS011;59230;54.164;-3.124;2023-08-20T10:48:33;17.67;;;2.70;;
47009;SDS011;59230;54.164;-3.124;2023-08-20T10:51:14;20.33;;;3.13;;
47009;SDS011;59230;54.164;-3.124;2023-08-20T10:56:47;19.75;;;2.85;;
47009;SDS011;59230;54.164;-3.124;2023-08-20T11:01:49;20.30;;;3.03;;
47009;SDS011;59230;54.164;-3.124;2023-08-20T11:04:17;20.98;;;3.72;;
47009;SDS011;59230;54.164;-3.124;2023-08-20T11:06:46;12.40;;;2.78;;
47009;SDS011;59230;54.164;-3.124;2023-08-20T11:09:12;14.55;;;2.83;;
47009;SDS011;59230;54.164;-3.124;2023-08-20T11:11:39;16.88;;;2.63;;
47009;SDS011;59230;54.164;-3.124;2023-08-20T11:14:08;21.05;;;3.60;;
47009;SDS011;59230;54.164;-3.124;2023-08-20T11:16:38;26.45;;;3.75;;
47009;SDS011;59230;54.164;-3.124;2023-08-20T11:19:04;20.63;;;2.67;;
47009;SDS011;59230;54.164;-3.124;2023-08-20T11:21:33;17.38;;;3.08;;
47009;SDS011;59230;54.164;-3.124;2023-08-20T11:23:59;19.67;;;3.25;;
47009;SDS011;59230;54.164;-3.124;2023-08-20T11:26:26;19.40;;;2.80;;
47009;SDS011;59230;54.164;-3.124;2023-08-20T11:28:51;22.95;;;3.65;;
47009;SDS011;59230;54.164;-3.124;2023-08-20T11:31:17;23.45;;;2.83;;
47009;SDS011;59230;54.164;-3.124;2023-08-20T11:33:42;22.10;;;3.97;;
47009;SDS011;59230;54.164;-3.124;2023-08-20T11:36:12;20.70;;;2.92;;
47009;SDS011;59230;54.164;-3.124;2023-08-20T11:38:40;18.02;;;2.90;;
47009;SDS011;59230;54.164;-3.124;2023-08-20T11:41:06;19.35;;;2.75;;
47009;SDS011;59230;54.164;-3.124;2023-08-20T11:43:31;21.20;;;3.35;;
47009;SDS011;59230;54.164;-3.124;2023-08-20T11:45:57;16.77;;;2.85;;
47009;SDS011;59230;54.164;-3.124;2023-08-20T11:48:23;21.75;;;3.47;;
47009;SDS011;59230;54.164;-3.124;2023-08-20T11:50:49;16.75;;;3.05;;
47009;SDS011;59230;54.164;-3.124;2023-08-20T11:53:15;19.60;;;2.78;;
47009;SDS011;59230;54.164;-3.124;2023-08-20T11:55:46;17.48;;;3.05;;
47009;SDS011;59230;54.164;-3.124;2023-08-20T11:58:11;17.42;;;2.67;;
47009;SDS011;59230;54.164;-3.124;2023-08-20T12:00:37;17.85;;;2.97;;
47009;SDS011;59230;54.164;-3.124;2023-08-20T12:03:03;14.35;;;2.85;;
47009;SDS011;59230;54.164;-3.124;2023-08-20T12:05:30;15.73;;;2.95;;
47009;SDS011;59230;54.164;-3.124;2023-08-20T12:10:27;15.32;;;2.60;;
47009;SDS011;59230;54.164;-3.124;2023-08-20T12:12:53;14.70;;;2.70;;
47009;SDS011;59230;54.164;-3.124;2023-08-20T12:15:20;21.42;;;2.92;;
47009;SDS011;59230;54.164;-3.124;2023-08-20T12:18:01;19.42;;;3.08;;
47009;SDS011;59230;54.164;-3.124;2023-08-20T12:20:29;16.48;;;2.83;;
47009;SDS011;59230;54.164;-3.124;2023-08-20T12:23:00;17.08;;;2.88;;
47009;SDS011;59230;54.164;-3.124;2023-08-20T12:25:30;25.65;;;4.15;;
47009;SDS011;59230;54.164;-3.124;2023-08-20T12:27:55;22.38;;;3.28;;
47009;SDS011;59230;54.164;-3.124;2023-08-20T12:30:21;19.63;;;2.90;;
47009;SDS011;59230;54.164;-3.124;2023-08-20T12:32:50;21.92;;;3.33;;
47009;SDS011;59230;54.164;-3.124;2023-08-20T12:35:15;14.90;;;3.25;;
47009;SDS011;59230;54.164;-3.124;2023-08-20T12:37:41;19.85;;;3.53;;
47009;SDS011;59230;54.164;-3.124;2023-08-20T12:40:06;16.75;;;3.85;;
47009;SDS011;59230;54.164;-3.124;2023-08-20T12:42:37;27.00;;;3.60;;
47009;SDS011;59230;54.164;-3.124;2023-08-20T12:45:04;23.58;;;3.45;;
47009;SDS011;59230;54.164;-3.124;2023-08-20T12:47:31;17.00;;;3.65;;
47009;SDS011;59230;54.164;-3.124;2023-08-20T12:49:56;24.92;;;3.60;;
47009;SDS011;59230;54.164;-3.124;2023-08-20T12:52:21;22.48;;;3.05;;
47009;SDS011;59230;54.164;-3.124;2023-08-20T12:54:47;15.23;;;3.05;;
47009;SDS011;59230;54.164;-3.124;2023-08-20T12:57:12;25.33;;;4.75;;
47009;SDS011;59230;54.164;-3.124;2023-08-20T12:59:38;20.70;;;3.33;;
47009;SDS011;59230;54.164;-3.124;2023-08-20T13:02:03;18.58;;;2.95;;
47009;SDS011;59230;54.164;-3.124;2023-08-20T13:04:29;13.95;;;2.40;;
47009;SDS011;59230;54.164;-3.124;2023-08-20T13:06:54;24.13;;;3.00;;
47009;SDS011;59230;54.164;-3.124;2023-08-20T13:09:20;20.02;;;3.13;;
47009;SDS011;59230;54.164;-3.124;2023-08-20T13:11:45;16.40;;;2.83;;
47009;SDS011;59230;54.164;-3.124;2023-08-20T13:14:12;22.00;;;3.85;;
47009;SDS011;59230;54.164;-3.124;2023-08-20T13:16:38;16.58;;;3.30;;
47009;SDS011;59230;54.164;-3.124;2023-08-20T13:19:04;25.08;;;4.25;;
47009;SDS011;59230;54.164;-3.124;2023-08-20T13:21:30;19.00;;;3.13;;
47009;SDS011;59230;54.164;-3.124;2023-08-20T13:23:55;18.55;;;3.17;;
47009;SDS011;59230;54.164;-3.124;2023-08-20T13:26:21;16.83;;;2.92;;
47009;SDS011;59230;54.164;-3.124;2023-08-20T13:28:47;21.00;;;3.10;;
47009;SDS011;59230;54.164;-3.124;2023-08-20T13:31:13;21.70;;;3.80;;
47009;SDS011;59230;54.164;-3.124;2023-08-20T13:33:38;17.20;;;3.25;;
47009;SDS011;59230;54.164;-3.124;2023-08-20T13:36:04;12.18;;;3.10;;
47009;SDS011;59230;54.164;-3.124;2023-08-20T13:38:30;11.48;;;2.50;;
47009;SDS011;59230;54.164;-3.124;2023-08-20T13:40:55;13.70;;;2.15;;
47009;SDS011;59230;54.164;-3.124;2023-08-20T13:43:22;22.58;;;2.83;;
47009;SDS011;59230;54.164;-3.124;2023-08-20T13:45:48;15.68;;;2.60;;
47009;SDS011;59230;54.164;-3.124;2023-08-20T13:48:13;17.35;;;2.85;;
47009;SDS011;59230;54.164;-3.124;2023-08-20T13:50:39;17.98;;;2.50;;
47009;SDS011;59230;54.164;-3.124;2023-08-20T13:53:04;12.02;;;2.60;;
47009;SDS011;59230;54.164;-3.124;2023-08-20T13:55:29;22.83;;;3.83;;
47009;SDS011;59230;54.164;-3.124;2023-08-20T13:57:56;18.08;;;2.83;;
47009;SDS011;59230;54.164;-3.124;2023-08-20T14:00:21;16.90;;;2.58;;
47009;SDS011;59230;54.164;-3.124;2023-08-20T14:02:47;20.52;;;3.08;;
47009;SDS011;59230;54.164;-3.124;2023-08-20T14:05:13;20.02;;;3.08;;
47009;SDS011;59230;54.164;-3.124;2023-08-20T14:07:38;18.25;;;3.13;;
47009;SDS011;59230;54.164;-3.124;2023-08-20T14:10:04;16.13;;;2.80;;
47009;SDS011;59230;54.164;-3.124;2023-08-20T14:12:29;16.77;;;2.50;;
47009;SDS011;59230;54.164;-3.124;2023-08-20T14:14:55;16.98;;;2.40;;
47009;SDS011;59230;54.164;-3.124;2023-08-20T14:17:21;17.00;;;2.85;;
47009;SDS011;59230;54.164;-3.124;2023-08-20T14:19:46;17.70;;;2.75;;
47009;SDS011;59230;54.164;-3.124;2023-08-20T14:22:12;14.77;;;2.58;;
47009;SDS011;59230;54.164;-3.124;2023-08-20T14:24:37;17.70;;;3.30;;
47009;SDS011;59230;54.164;-3.124;2023-08-20T14:27:02;9.77;;;2.35;;
47009;SDS011;59230;54.164;-3.124;2023-08-20T14:29:28;12.27;;;2.60;;
47009;SDS011;59230;54.164;-3.124;2023-08-20T14:31:53;18.17;;;2.80;;
47009;SDS011;59230;54.164;-3.124;2023-08-20T14:34:19;16.70;;;2.40;;
47009;SDS011;59230;54.164;-3.124;2023-08-20T14:36:44;20.10;;;2.92;;